createdAt,value
2019-04-05T00:00:42.515Z,4.70
2019-04-05T00:03:23.197Z,4.70
2019-04-05T00:06:04.142Z,4.70
2019-04-05T00:08:45.095Z,4.70
2019-04-05T00:11:25.738Z,4.70
2019-04-05T00:14:06.819Z,4.70
2019-04-05T00:16:47.682Z,4.70
2019-04-05T00:19:28.032Z,4.70
2019-04-05T00:22:08.520Z,4.80
2019-04-05T00:24:49.544Z,4.70
2019-04-05T00:27:30.359Z,4.70
2019-04-05T00:30:11.070Z,4.70
2019-04-05T00:32:51.969Z,4.70
2019-04-05T00:35:32.617Z,4.70
2019-04-05T00:38:13.563Z,4.70
2019-04-05T00:40:53.952Z,4.70
2019-04-05T00:43:34.199Z,4.70
2019-04-05T00:46:15.074Z,4.80
2019-04-05T00:48:55.812Z,4.80
2019-04-05T00:51:36.719Z,4.80
2019-04-05T00:54:17.125Z,4.70
2019-04-05T00:56:57.751Z,4.80
2019-04-05T00:59:38.323Z,4.80
2019-04-05T01:02:18.776Z,4.70
2019-04-05T01:04:59.142Z,4.70
2019-04-05T01:07:39.539Z,4.70
2019-04-05T01:10:20.233Z,4.70
2019-04-05T01:13:00.628Z,5.80
2019-04-05T01:15:41.490Z,4.70
2019-04-05T01:18:21.832Z,6.90
2019-04-05T01:21:02.501Z,4.70
2019-04-05T01:23:43.058Z,4.80
2019-04-05T01:26:23.498Z,4.70
2019-04-05T01:29:03.954Z,4.70
2019-04-05T01:31:44.874Z,4.70
2019-04-05T01:34:25.687Z,4.70
2019-04-05T01:37:06.527Z,4.70
2019-04-05T01:39:46.998Z,4.70
2019-04-05T01:45:32.652Z,4.90
2019-04-05T01:48:13.232Z,4.60
2019-04-05T01:50:53.744Z,4.60
2019-04-05T01:53:34.293Z,4.60
2019-04-05T01:56:14.673Z,4.60
2019-04-05T01:58:55.117Z,4.60
2019-04-05T02:01:35.902Z,5.70
2019-04-05T02:04:16.939Z,4.60
2019-04-05T02:06:57.298Z,6.80
2019-04-05T02:09:37.968Z,4.60
2019-04-05T02:12:18.797Z,4.60
2019-04-05T02:14:59.566Z,4.60
2019-04-05T02:17:40.043Z,4.60
2019-04-05T02:20:20.647Z,4.60
2019-04-05T02:23:01.639Z,5.90
2019-04-05T02:25:42.437Z,4.50
2019-04-05T02:28:25.468Z,4.70
2019-04-05T02:31:05.910Z,4.60
2019-04-05T02:33:46.374Z,4.60
2019-04-05T02:36:27.030Z,4.60
2019-04-05T02:39:07.524Z,4.60
2019-04-05T02:41:48.313Z,6.90
2019-04-05T02:44:29.159Z,4.60
2019-04-05T02:47:09.785Z,4.60
2019-04-05T02:49:50.272Z,4.60
2019-04-05T02:52:30.876Z,6.20
2019-04-05T02:55:31.118Z,7.70
2019-04-05T03:01:22.635Z,4.60
2019-04-05T03:04:01.972Z,4.60
2019-04-05T03:06:42.317Z,4.50
2019-04-05T03:09:23.167Z,4.60
2019-04-05T03:12:03.831Z,6.70
2019-04-05T03:14:44.677Z,4.60
2019-04-05T03:17:25.020Z,4.60
2019-04-05T03:20:05.778Z,4.50
2019-04-05T03:22:46.412Z,4.50
2019-04-05T03:25:27.482Z,4.60
2019-04-05T03:28:07.822Z,4.60
2019-04-05T03:30:48.714Z,4.60
2019-04-05T03:33:29.236Z,4.60
2019-04-05T03:36:10.405Z,4.60
2019-04-05T03:38:51.293Z,4.60
2019-04-05T03:41:32.082Z,4.60
2019-04-05T03:44:12.962Z,4.70
2019-04-05T03:46:56.840Z,7.90
2019-04-05T03:49:33.709Z,4.70
2019-04-05T03:52:21.439Z,4.70
2019-04-05T03:55:09.167Z,4.70
2019-04-05T03:57:56.922Z,8.10
2019-04-05T04:00:44.636Z,4.80
2019-04-05T04:03:32.820Z,5.90
2019-04-05T04:06:20.589Z,4.70
2019-04-05T04:09:08.269Z,4.70
2019-04-05T04:11:55.987Z,4.70
2019-04-05T04:17:43.355Z,4.70
2019-04-05T04:20:24.015Z,6.90
2019-04-05T04:23:04.651Z,4.70
2019-04-05T04:25:45.176Z,4.70
2019-04-05T04:28:25.913Z,6.20
2019-04-05T04:31:06.787Z,6.10
2019-04-05T04:33:47.731Z,4.70
2019-04-05T04:36:28.705Z,7.70
2019-04-05T04:39:09.435Z,4.80
2019-04-05T04:41:50.129Z,4.80
2019-04-05T04:44:30.579Z,4.80
2019-04-05T04:47:25.046Z,4.80
2019-04-05T04:49:53.942Z,4.70
2019-04-05T04:52:34.619Z,4.70
2019-04-05T04:55:15.407Z,8.10
2019-04-05T04:57:56.002Z,4.70
2019-04-05T05:00:36.594Z,4.70
2019-04-05T05:03:17.269Z,4.80
2019-04-05T05:05:57.490Z,4.80
2019-04-05T05:08:38.378Z,4.80
2019-04-05T05:11:18.974Z,4.80
2019-04-05T05:13:59.703Z,4.80
2019-04-05T05:16:39.919Z,8.80
2019-04-05T05:19:20.648Z,4.70
2019-04-05T05:22:01.536Z,4.70
2019-04-05T05:24:42.164Z,4.80
2019-04-05T05:27:22.678Z,4.80
2019-04-05T05:30:02.959Z,4.80
2019-04-05T05:32:43.904Z,4.80
2019-04-05T05:35:24.776Z,4.80
2019-04-05T05:38:05.301Z,4.80
2019-04-05T05:40:45.658Z,4.80
2019-04-05T05:43:26.552Z,4.80
2019-04-05T05:46:07.192Z,4.80
2019-04-05T05:48:47.808Z,8.10
2019-04-05T05:51:28.268Z,4.90
2019-04-05T05:54:09.179Z,4.90
2019-04-05T05:56:49.589Z,4.90
2019-04-05T05:59:30.776Z,4.90
2019-04-05T06:02:11.540Z,4.90
2019-04-05T06:04:52.177Z,5.00
2019-04-05T06:07:32.629Z,7.80
2019-04-05T06:10:13.490Z,4.90
2019-04-05T06:12:54.194Z,5.00
2019-04-05T06:15:37.410Z,5.60
2019-04-05T06:18:17.158Z,5.00
2019-04-05T06:20:58.057Z,6.20
2019-04-05T06:23:38.536Z,8.00
2019-04-05T06:26:19.423Z,6.90
2019-04-05T06:28:59.897Z,5.00
2019-04-05T06:31:40.702Z,5.10
2019-04-05T06:34:21.439Z,5.10
2019-04-05T06:37:02.007Z,5.20
2019-04-05T06:39:42.366Z,5.10
2019-04-05T06:42:22.792Z,6.40
2019-04-05T06:45:03.404Z,5.20
2019-04-05T06:47:43.744Z,5.20
2019-04-05T06:50:24.357Z,5.20
2019-04-05T06:53:05.180Z,5.20
2019-04-05T06:55:45.831Z,5.30
2019-04-05T06:58:29.104Z,5.30
2019-04-05T07:01:08.978Z,5.30
2019-04-05T07:03:49.298Z,5.30
2019-04-05T07:06:30.391Z,5.30
2019-04-05T07:09:10.775Z,5.40
2019-04-05T07:11:51.403Z,5.30
2019-04-05T07:14:32.252Z,5.40
2019-04-05T07:17:13.228Z,5.50
2019-04-05T07:19:54.066Z,5.50
2019-04-05T07:22:39.070Z,5.50
2019-04-05T07:25:17.489Z,5.60
2019-04-05T07:27:58.802Z,7.10
2019-04-05T07:30:39.136Z,5.60
2019-04-05T07:33:19.866Z,5.60
2019-04-05T07:36:03.312Z,5.60
2019-04-05T07:38:43.284Z,5.60
2019-04-05T07:41:24.068Z,5.60
2019-04-05T07:44:04.634Z,5.80
2019-04-05T07:46:46.617Z,5.90
2019-04-05T07:49:27.204Z,5.90
2019-04-05T07:52:08.039Z,6.00
2019-04-05T07:54:48.632Z,9.30
2019-04-05T07:57:29.578Z,6.10
2019-04-05T08:00:10.457Z,6.20
2019-04-05T08:02:50.948Z,6.20
2019-04-05T08:05:31.668Z,6.30
2019-04-05T08:08:12.607Z,7.00
2019-04-05T08:10:53.223Z,6.50
2019-04-05T08:13:33.841Z,6.50
2019-04-05T08:16:14.874Z,6.50
2019-04-05T08:18:57.988Z,6.60
2019-04-05T08:21:38.397Z,8.90
2019-04-05T08:24:19.074Z,6.70
2019-04-05T08:26:59.894Z,6.80
2019-04-05T08:29:40.929Z,6.80
2019-04-05T08:32:21.718Z,6.80
2019-04-05T08:35:02.553Z,6.80
2019-04-05T08:37:43.228Z,6.80
2019-04-05T08:40:24.267Z,6.80
2019-04-05T08:43:05.016Z,6.80
2019-04-05T08:45:45.824Z,6.80
2019-04-05T08:48:26.663Z,6.80
2019-04-05T08:51:07.407Z,6.70
2019-04-05T08:53:47.842Z,6.70
2019-04-05T08:56:28.611Z,6.70
2019-04-05T08:59:09.532Z,6.70
2019-04-05T09:01:50.177Z,6.60
2019-04-05T09:04:30.721Z,6.70
2019-04-05T09:07:11.764Z,6.70
2019-04-05T09:09:52.703Z,6.70
2019-04-05T09:12:33.392Z,6.70
2019-04-05T09:15:14.258Z,6.80
2019-04-05T09:17:54.862Z,6.80
2019-04-05T09:20:35.303Z,6.80
2019-04-05T09:23:15.785Z,6.80
2019-04-05T09:25:56.394Z,6.80
2019-04-05T09:28:36.908Z,6.90
2019-04-05T09:31:17.508Z,6.90
2019-04-05T09:33:58.277Z,6.90
2019-04-05T09:36:39.076Z,6.80
2019-04-05T09:39:19.797Z,9.90
2019-04-05T09:42:00.601Z,6.90
2019-04-05T09:44:41.096Z,6.90
2019-04-05T09:47:22.043Z,7.00
2019-04-05T09:50:02.542Z,7.30
2019-04-05T09:52:43.356Z,7.00
2019-04-05T09:55:23.847Z,7.00
2019-04-05T09:58:04.776Z,10.20
2019-04-05T10:00:45.409Z,7.10
2019-04-05T10:03:26.297Z,7.20
2019-04-05T10:06:07.108Z,7.10
2019-04-05T10:08:48.267Z,7.20
2019-04-05T10:11:29.068Z,7.30
2019-04-05T10:14:09.867Z,7.40
2019-04-05T10:16:50.314Z,7.40
2019-04-05T10:19:30.966Z,7.40
2019-04-05T10:22:11.843Z,7.40
2019-04-05T10:24:52.792Z,7.40
2019-04-05T10:27:33.553Z,7.30
2019-04-05T10:30:14.572Z,7.30
2019-04-05T10:32:55.189Z,7.30
2019-04-05T10:35:35.760Z,7.30
2019-04-05T10:38:16.416Z,7.30
2019-04-05T10:40:56.813Z,7.30
2019-04-05T10:43:37.793Z,7.30
2019-04-05T10:46:18.165Z,7.40
2019-04-05T10:48:58.861Z,7.50
2019-04-05T10:51:39.513Z,8.70
2019-04-05T10:54:20.506Z,7.50
2019-04-05T10:57:00.868Z,7.50
2019-04-05T10:59:41.373Z,7.50
2019-04-05T11:02:21.932Z,7.50
2019-04-05T11:05:02.599Z,7.90
2019-04-05T11:07:43.479Z,8.90
2019-04-05T11:10:24.152Z,7.70
2019-04-05T11:13:04.721Z,7.90
2019-04-05T11:15:45.821Z,7.80
2019-04-05T11:18:26.621Z,7.80
2019-04-05T11:21:07.784Z,7.70
2019-04-05T11:23:48.466Z,9.50
2019-04-05T11:26:29.233Z,7.70
2019-04-05T11:29:09.868Z,7.60
2019-04-05T11:31:56.846Z,7.70
2019-04-05T11:34:33.177Z,7.70
2019-04-05T11:37:13.621Z,7.60
2019-04-05T11:39:54.426Z,7.60
2019-04-05T11:42:35.357Z,7.60
2019-04-05T11:45:16.207Z,7.60
2019-04-05T11:47:57.688Z,7.50
2019-04-05T11:50:38.783Z,7.60
2019-04-05T11:53:21.861Z,7.60
2019-04-05T11:56:13.944Z,7.70
2019-04-05T11:58:48.621Z,7.60
2019-04-05T12:01:29.919Z,7.60
2019-04-05T12:04:10.624Z,7.60
2019-04-05T12:06:52.177Z,7.90
2019-04-05T12:09:33.037Z,10.20
2019-04-05T12:12:13.524Z,7.60
2019-04-05T12:14:53.958Z,8.40
2019-04-05T12:17:35.317Z,7.70
2019-04-05T12:20:16.300Z,8.50
2019-04-05T12:22:57.073Z,7.70
2019-04-05T12:25:37.942Z,8.00
2019-04-05T12:28:16.713Z,9.70
2019-04-05T12:36:52.610Z,7.60
2019-04-05T12:39:41.052Z,7.60
2019-04-05T12:42:29.013Z,7.50
2019-04-05T12:45:16.762Z,7.50
2019-04-05T12:48:04.478Z,7.60
2019-04-05T12:51:01.124Z,7.50
2019-04-05T12:53:41.704Z,7.40
2019-04-05T12:56:29.440Z,7.40
2019-04-05T12:59:17.205Z,7.50
2019-04-05T13:04:58.722Z,7.40
2019-04-05T13:07:46.473Z,9.60
2019-04-05T13:10:34.283Z,7.50
2019-04-05T13:13:22.041Z,7.50
2019-04-05T13:16:10.707Z,7.60
2019-04-05T13:18:52.558Z,7.50
2019-04-05T13:21:33.294Z,7.40
2019-04-05T13:24:13.593Z,7.40
2019-04-05T13:26:54.346Z,7.80
2019-04-05T13:29:35.023Z,7.40
2019-04-05T13:32:17.172Z,7.40
2019-04-05T13:34:57.748Z,7.40
2019-04-05T13:37:38.515Z,7.40
2019-04-05T13:40:19.536Z,7.30
2019-04-05T13:43:02.028Z,7.30
2019-04-05T13:45:42.886Z,7.30
2019-04-05T13:48:23.426Z,7.30
2019-04-05T13:51:07.072Z,7.30
2019-04-05T13:53:46.709Z,7.30
2019-04-05T13:56:27.539Z,8.90
2019-04-05T13:59:08.413Z,7.40
2019-04-05T14:01:51.493Z,7.70
2019-04-05T14:04:31.242Z,7.30
2019-04-05T14:07:11.954Z,8.20
2019-04-05T14:09:52.723Z,7.30
2019-04-05T14:12:33.338Z,7.30
2019-04-05T14:15:13.758Z,7.30
2019-04-05T14:17:54.618Z,7.30
2019-04-05T14:20:35.211Z,7.40
2019-04-05T14:23:15.532Z,7.50
2019-04-05T14:25:59.595Z,7.50
2019-04-05T14:28:38.361Z,7.30
2019-04-05T14:31:19.024Z,7.40
2019-04-05T14:33:59.838Z,7.30
2019-04-05T14:36:40.909Z,10.20
2019-04-05T14:39:21.623Z,7.30
2019-04-05T14:42:09.585Z,7.30
2019-04-05T14:44:45.232Z,7.20
2019-04-05T14:47:28.116Z,7.20
2019-04-05T14:50:08.867Z,7.20
2019-04-05T14:52:49.763Z,7.10
2019-04-05T14:55:30.978Z,7.10
2019-04-05T14:58:11.460Z,11.40
2019-04-05T15:00:52.242Z,7.10
2019-04-05T15:03:33.051Z,7.10
2019-04-05T15:06:14.185Z,7.10
2019-04-05T15:08:54.566Z,7.10
2019-04-05T15:11:35.462Z,7.10
2019-04-05T15:14:16.081Z,7.10
2019-04-05T15:16:56.667Z,7.20
2019-04-05T15:19:37.476Z,7.10
2019-04-05T15:22:18.172Z,7.20
2019-04-05T15:24:59.061Z,7.10
2019-04-05T15:27:39.699Z,8.10
2019-04-05T15:30:21.367Z,7.10
2019-04-05T15:33:03.870Z,7.10
2019-04-05T15:35:45.004Z,7.20
2019-04-05T15:38:25.627Z,7.20
2019-04-05T15:41:06.188Z,7.10
2019-04-05T15:43:47.215Z,7.20
2019-04-05T15:46:27.796Z,7.20
2019-04-05T15:49:08.509Z,7.20
2019-04-05T15:51:49.431Z,7.20
2019-04-05T15:54:33.186Z,7.20
2019-04-05T15:57:13.106Z,8.70
2019-04-05T15:59:53.937Z,7.20
2019-04-05T16:02:34.902Z,7.20
2019-04-05T16:05:15.477Z,7.10
2019-04-05T16:07:56.033Z,7.20
2019-04-05T16:10:36.565Z,7.20
2019-04-05T16:13:17.182Z,7.20
2019-04-05T16:15:57.876Z,7.20
2019-04-05T16:18:38.643Z,7.30
2019-04-05T16:21:19.487Z,7.20
2019-04-05T16:24:00.217Z,10.00
2019-04-05T16:26:40.762Z,7.20
2019-04-05T16:29:21.327Z,7.20
2019-04-05T16:32:02.142Z,7.20
2019-04-05T16:34:42.927Z,7.20
2019-04-05T16:37:23.531Z,7.20
2019-04-05T16:40:04.658Z,7.20
2019-04-05T16:42:45.238Z,7.20
2019-04-05T16:45:26.045Z,7.30
2019-04-05T16:48:06.781Z,7.30
2019-04-05T16:50:47.629Z,7.20
2019-04-05T16:53:28.412Z,7.20
2019-04-05T16:56:08.970Z,7.10
2019-04-05T16:58:49.470Z,7.10
2019-04-05T17:01:29.912Z,7.10
2019-04-05T17:04:10.742Z,7.10
2019-04-05T17:06:51.575Z,8.90
2019-04-05T17:09:32.472Z,7.00
2019-04-05T17:12:13.092Z,7.00
2019-04-05T17:14:54.027Z,6.90
2019-04-05T17:17:34.342Z,6.90
2019-04-05T17:20:14.948Z,7.00
2019-04-05T17:22:58.368Z,6.90
2019-04-05T17:25:37.997Z,9.70
2019-04-05T17:28:18.903Z,6.80
2019-04-05T17:30:59.942Z,6.80
2019-04-05T17:33:40.561Z,6.80
2019-04-05T17:36:21.307Z,6.80
2019-04-05T17:39:02.033Z,6.80
2019-04-05T17:41:42.558Z,6.80
2019-04-05T17:44:23.367Z,6.80
2019-04-05T17:47:04.278Z,6.80
2019-04-05T17:49:45.260Z,6.70
2019-04-05T17:52:25.911Z,6.70
2019-04-05T17:55:06.900Z,6.70
2019-04-05T17:57:47.736Z,6.70
2019-04-05T18:00:28.078Z,6.70
2019-04-05T18:03:08.472Z,6.70
2019-04-05T18:05:49.550Z,6.70
2019-04-05T18:08:30.147Z,6.70
2019-04-05T18:11:10.534Z,6.70
2019-04-05T18:13:51.349Z,6.60
2019-04-05T18:16:32.182Z,6.70
2019-04-05T18:19:12.571Z,6.80
2019-04-05T18:21:53.281Z,6.60
2019-04-05T18:24:34.096Z,7.70
2019-04-05T18:27:14.777Z,6.70
2019-04-05T18:29:55.257Z,6.70
2019-04-05T18:32:36.129Z,6.60
2019-04-05T18:35:16.675Z,6.60
2019-04-05T18:37:57.415Z,6.60
2019-04-05T18:40:40.344Z,6.60
2019-04-05T18:43:21.024Z,6.70
2019-04-05T18:46:01.650Z,6.70
2019-04-05T18:48:42.580Z,6.70
2019-04-05T18:51:22.957Z,6.60
2019-04-05T18:54:03.888Z,8.00
2019-04-05T18:56:44.658Z,6.60
2019-04-05T18:59:25.378Z,6.60
2019-04-05T19:02:06.250Z,6.60
2019-04-05T19:04:47.060Z,6.60
2019-04-05T19:07:27.580Z,6.60
2019-04-05T19:10:08.502Z,8.10
2019-04-05T19:12:49.403Z,6.70
2019-04-05T19:15:30.188Z,10.20
2019-04-05T19:18:11.056Z,6.70
2019-04-05T19:20:51.651Z,6.70
2019-04-05T19:23:32.306Z,6.80
2019-04-05T19:26:12.877Z,6.70
2019-04-05T19:28:53.502Z,6.70
2019-04-05T19:50:32.902Z,6.70
2019-04-05T19:53:13.276Z,6.60
2019-04-05T19:55:53.885Z,6.60
2019-04-05T19:58:34.711Z,6.60
2019-04-05T20:01:15.207Z,6.60
2019-04-05T20:03:55.670Z,6.70
2019-04-05T20:06:36.292Z,6.60
2019-04-05T20:09:17.662Z,6.60
2019-04-05T20:11:58.467Z,6.60
2019-04-05T20:14:39.298Z,6.60
2019-04-05T20:17:20.246Z,6.60
2019-04-05T20:20:00.726Z,6.60
2019-04-05T20:22:41.481Z,6.70
2019-04-05T20:25:21.995Z,6.70
2019-04-05T20:28:02.339Z,7.80
2019-04-05T20:30:43.146Z,6.60
2019-04-05T20:33:23.751Z,6.60
2019-04-05T20:36:04.506Z,6.60
2019-04-05T20:38:45.029Z,6.60
2019-04-05T20:41:25.586Z,8.90
2019-04-05T20:44:06.172Z,7.00
2019-04-05T20:46:46.846Z,6.60
2019-04-05T20:49:27.385Z,8.80
2019-04-05T20:52:07.941Z,6.60
2019-04-05T20:54:48.409Z,6.60
2019-04-05T20:57:28.886Z,6.60
2019-04-05T21:00:10.508Z,6.60
2019-04-05T21:02:51.721Z,6.60
2019-04-05T21:05:32.561Z,6.60
2019-04-05T21:08:13.020Z,6.60
2019-04-05T21:10:53.798Z,6.70
2019-04-05T21:13:34.571Z,6.60
2019-04-05T21:16:15.091Z,6.60
2019-04-05T21:18:55.735Z,7.50
2019-04-05T21:21:36.132Z,6.60
2019-04-05T21:24:16.702Z,6.60
2019-04-05T21:26:57.262Z,6.60
2019-04-05T21:29:38.138Z,6.60
2019-04-05T21:32:18.910Z,6.60
2019-04-05T21:34:59.466Z,6.60
2019-04-05T21:37:40.172Z,6.60
2019-04-05T21:40:21.081Z,6.70
2019-04-05T21:43:01.843Z,6.70
2019-04-05T21:45:42.507Z,6.60
2019-04-05T21:48:23.458Z,6.60
2019-04-05T21:51:04.307Z,6.70
2019-04-05T21:53:44.790Z,6.70
2019-04-05T21:56:25.246Z,7.80
2019-04-05T21:59:05.930Z,10.10
2019-04-05T22:01:47.178Z,6.70
2019-04-05T22:04:28.210Z,6.70
2019-04-05T22:07:09.047Z,6.70
2019-04-05T22:09:49.555Z,6.80
2019-04-05T22:12:30.417Z,6.80
2019-04-05T22:15:11.293Z,6.80
2019-04-05T22:17:51.615Z,6.80
2019-04-05T22:20:32.410Z,6.80
2019-04-05T22:23:13.522Z,6.80
2019-04-05T22:25:54.462Z,8.60
2019-04-05T22:28:35.207Z,6.80
2019-04-05T22:31:15.955Z,8.30
2019-04-05T22:33:56.634Z,6.80
2019-04-05T22:36:37.199Z,6.80
2019-04-05T22:39:17.776Z,6.80
2019-04-05T22:41:58.842Z,6.80
2019-04-05T22:44:41.568Z,9.00
2019-04-05T22:47:22.051Z,6.80
2019-04-05T22:50:02.799Z,6.80
2019-04-05T22:52:43.694Z,6.80
2019-04-05T22:55:24.474Z,6.80
2019-04-05T22:58:05.536Z,6.80
2019-04-05T23:00:46.061Z,6.80
2019-04-05T23:03:26.986Z,6.90
2019-04-05T23:06:07.925Z,6.80
2019-04-05T23:08:48.727Z,6.90
2019-04-05T23:11:29.166Z,6.90
2019-04-05T23:14:09.709Z,7.80
2019-04-05T23:16:50.247Z,6.80
2019-04-05T23:19:30.986Z,6.90
2019-04-05T23:22:11.776Z,10.00
2019-04-05T23:24:52.125Z,6.90
2019-04-05T23:27:32.664Z,6.90
2019-04-05T23:30:13.076Z,7.60
2019-04-05T23:32:53.917Z,6.80
2019-04-05T23:35:34.621Z,6.80
2019-04-05T23:38:15.104Z,6.80
2019-04-05T23:40:56.104Z,6.80
2019-04-05T23:43:36.542Z,6.80
2019-04-05T23:46:16.996Z,6.80
2019-04-05T23:48:57.990Z,6.90
2019-04-05T23:51:38.512Z,8.10
2019-04-05T23:54:19.369Z,6.90
2019-04-05T23:57:00.191Z,6.80
2019-04-05T23:59:40.904Z,6.90
